Time;durP1;ratioP1;P1;durP2;ratioP2;P2;SDS_P1;SDS_P2;PMS_P1;PMS_P2;Temp;Humidity;BMP_temperature;BMP_pressure;BME280_temperature;BME280_humidity;BME280_pressure;Samples;Min_cycle;Max_cycle;Signal;HPM_P1;HPM_P2
2021/12/29 00:03:44;;;;;;;1.50;1.20;;;17.00;60.50;;;;;;10408933;28;20209;-66
2021/12/29 00:09:07;;;;;;;1.40;1.20;;;17.00;60.50;;;;;;10412257;28;20237;-67
2021/12/29 00:14:29;;;;;;;1.50;1.17;;;17.00;60.50;;;;;;10412661;28;20217;-67
2021/12/29 00:19:52;;;;;;;2.03;1.27;;;17.00;60.50;;;;;;10409678;28;20577;-67
2021/12/29 00:25:14;;;;;;;1.90;1.20;;;17.00;60.60;;;;;;10410731;28;20225;-67
2021/12/29 00:30:37;;;;;;;1.53;1.30;;;17.00;60.50;;;;;;10410655;28;20726;-66
2021/12/29 00:36:00;;;;;;;1.87;1.30;;;17.00;60.50;;;;;;10411219;28;20287;-66
2021/12/29 00:41:22;;;;;;;2.83;1.27;;;17.00;60.50;;;;;;10411377;28;20696;-66
2021/12/29 00:46:44;;;;;;;2.23;1.40;;;17.00;60.50;;;;;;10410086;28;20566;-66
2021/12/29 00:52:09;;;;;;;1.60;1.27;;;17.00;60.50;;;;;;10408784;28;20209;-66
2021/12/29 00:57:31;;;;;;;2.20;1.00;;;17.00;60.60;;;;;;10438164;23;20231;-74
2021/12/29 01:02:54;;;;;;;2.67;1.37;;;17.00;60.60;;;;;;10449546;28;20212;-76
2021/12/29 01:08:17;;;;;;;1.87;1.30;;;17.00;60.50;;;;;;10410996;28;20689;-76
2021/12/29 01:13:46;;;;;;;1.80;1.07;;;17.00;60.50;;;;;;10449094;28;20196;-76
2021/12/29 01:19:11;;;;;;;1.70;1.23;;;17.00;60.50;;;;;;10448560;28;20212;-76
2021/12/29 01:24:35;;;;;;;2.53;1.17;;;17.00;60.60;;;;;;10450266;28;20205;-76
2021/12/29 01:29:57;;;;;;;2.07;1.30;;;17.00;60.60;;;;;;10450519;28;20217;-76
2021/12/29 01:35:19;;;;;;;1.80;1.20;;;17.00;60.60;;;;;;10453741;28;20216;-76
2021/12/29 01:40:48;;;;;;;1.43;0.93;;;17.00;60.50;;;;;;10459176;28;20204;-76
2021/12/29 01:46:10;;;;;;;1.93;1.17;;;17.00;60.60;;;;;;10458290;28;20209;-76
2021/12/29 01:51:32;;;;;;;2.03;1.17;;;17.00;60.60;;;;;;10457298;28;20204;-76
2021/12/29 01:56:58;;;;;;;2.47;1.20;;;17.00;60.60;;;;;;10459049;28;20225;-75
2021/12/29 02:02:21;;;;;;;1.40;1.07;;;17.00;60.60;;;;;;10456975;28;20702;-76
2021/12/29 02:07:43;;;;;;;2.27;1.27;;;17.00;60.60;;;;;;10456557;28;20217;-75
2021/12/29 02:13:06;;;;;;;1.83;1.17;;;17.00;60.60;;;;;;10458012;28;20201;-76
2021/12/29 02:18:30;;;;;;;1.47;1.00;;;17.00;60.60;;;;;;10458153;28;20638;-76
2021/12/29 02:24:05;;;;;;;1.83;1.17;;;16.90;60.50;;;;;;10457718;28;20204;-76
2021/12/29 02:29:27;;;;;;;1.80;0.87;;;17.00;60.60;;;;;;10457365;28;20221;-76
2021/12/29 02:34:50;;;;;;;2.07;1.20;;;17.00;60.60;;;;;;10455795;28;20580;-76
2021/12/29 02:40:13;;;;;;;1.70;1.10;;;16.90;60.60;;;;;;10456370;28;20197;-76
2021/12/29 02:45:36;;;;;;;2.00;0.90;;;17.00;60.60;;;;;;10455111;28;20225;-76
2021/12/29 02:50:59;;;;;;;1.50;1.00;;;17.00;60.60;;;;;;10456369;28;20593;-75
2021/12/29 02:56:23;;;;;;;1.80;0.90;;;16.90;60.60;;;;;;10455957;28;20695;-74
2021/12/29 03:01:45;;;;;;;2.77;0.97;;;16.90;60.60;;;;;;10456185;28;20201;-76
2021/12/29 03:07:07;;;;;;;1.00;0.80;;;17.00;60.60;;;;;;10455318;28;20291;-76
2021/12/29 03:12:31;;;;;;;1.30;1.10;;;17.00;60.70;;;;;;10455936;28;20220;-75
2021/12/29 03:17:53;;;;;;;1.53;1.00;;;16.90;60.60;;;;;;10455707;28;20209;-76
2021/12/29 03:23:16;;;;;;;1.20;0.90;;;17.00;60.70;;;;;;10453764;28;20208;-76
2021/12/29 03:28:40;;;;;;;1.20;0.93;;;16.90;60.60;;;;;;10453678;28;20736;-76
2021/12/29 03:34:02;;;;;;;1.33;0.87;;;17.00;60.60;;;;;;10454244;28;20263;-76
2021/12/29 03:39:26;;;;;;;1.63;0.90;;;16.90;60.60;;;;;;10455042;28;20212;-76
2021/12/29 03:44:49;;;;;;;1.03;0.80;;;16.90;60.60;;;;;;10454999;28;20200;-76
2021/12/29 03:50:12;;;;;;;0.97;0.90;;;16.90;60.60;;;;;;10458771;28;20225;-76
2021/12/29 03:55:34;;;;;;;1.50;1.10;;;16.90;60.60;;;;;;10454140;28;20224;-76
2021/12/29 04:00:59;;;;;;;1.70;0.90;;;16.90;60.60;;;;;;10452989;28;20208;-76
2021/12/29 04:06:22;;;;;;;2.23;0.90;;;16.90;60.70;;;;;;10411257;28;20220;-76
2021/12/29 04:11:49;;;;;;;1.10;1.00;;;16.90;60.60;;;;;;10416269;28;20193;-76
2021/12/29 04:17:15;;;;;;;1.67;1.00;;;17.00;60.70;;;;;;10453566;28;20216;-76
2021/12/29 04:22:37;;;;;;;1.40;0.97;;;16.90;60.60;;;;;;10448318;28;20207;-76
2021/12/29 04:28:00;;;;;;;2.47;1.13;;;16.90;60.60;;;;;;10452382;28;20224;-76
2021/12/29 04:33:25;;;;;;;1.00;0.90;;;16.90;60.60;;;;;;10452478;28;20698;-75
2021/12/29 04:38:47;;;;;;;1.73;1.20;;;16.90;60.60;;;;;;10450981;28;20699;-76
2021/12/29 04:44:09;;;;;;;1.63;1.10;;;16.90;60.60;;;;;;10451227;28;20204;-76
2021/12/29 04:49:40;;;;;;;1.47;1.03;;;16.90;60.60;;;;;;10449983;28;20608;-76
2021/12/29 04:55:02;;;;;;;1.90;1.03;;;17.00;60.60;;;;;;10449894;28;20232;-76
2021/12/29 05:00:25;;;;;;;1.53;1.10;;;17.00;60.50;;;;;;10448824;28;20216;-74
2021/12/29 05:08:24;;;;;;;2.40;0.80;;;17.00;60.50;;;;;;10450866;28;20224;-76
2021/12/29 05:11:38;;;;;;;1.97;1.17;;;17.00;60.50;;;;;;10447174;28;20604;-76
2021/12/29 05:17:00;;;;;;;1.40;0.97;;;17.00;60.60;;;;;;10448161;28;20583;-76
2021/12/29 05:22:23;;;;;;;1.33;1.00;;;17.00;60.60;;;;;;10450666;28;20219;-76
2021/12/29 05:27:45;;;;;;;1.53;0.97;;;17.00;60.60;;;;;;10450247;28;20220;-76
2021/12/29 05:33:08;;;;;;;1.47;1.07;;;17.10;60.70;;;;;;10452681;28;20225;-76
2021/12/29 05:38:31;;;;;;;1.57;1.10;;;17.00;60.60;;;;;;10440084;28;20221;-76
2021/12/29 05:43:53;;;;;;;1.30;0.97;;;17.10;60.60;;;;;;10433264;28;20196;-76
2021/12/29 05:49:15;;;;;;;1.53;0.90;;;17.10;60.70;;;;;;10437520;28;20240;-76
2021/12/29 05:54:39;;;;;;;1.90;1.00;;;17.10;60.60;;;;;;10438145;28;20205;-76
2021/12/29 06:00:02;;;;;;;1.00;0.87;;;17.10;60.60;;;;;;10431142;28;20200;-76
2021/12/29 06:05:25;;;;;;;1.40;0.93;;;17.10;60.60;;;;;;10432809;28;20865;-75
2021/12/29 06:10:48;;;;;;;1.67;1.00;;;17.10;60.70;;;;;;10434267;28;20224;-77
2021/12/29 06:16:10;;;;;;;1.50;0.90;;;17.10;60.60;;;;;;10437507;28;20231;-76
2021/12/29 06:21:33;;;;;;;1.07;0.80;;;17.10;60.70;;;;;;10442504;28;20212;-77
2021/12/29 06:26:56;;;;;;;1.37;1.00;;;17.10;60.70;;;;;;10435048;28;20214;-76
2021/12/29 06:32:19;;;;;;;1.23;0.90;;;17.10;60.70;;;;;;10441450;28;20687;-77
2021/12/29 06:37:41;;;;;;;1.10;1.00;;;17.10;60.70;;;;;;10441097;28;20205;-76
2021/12/29 06:43:05;;;;;;;1.03;0.93;;;17.10;60.90;;;;;;10442682;28;20206;-77
2021/12/29 06:48:27;;;;;;;1.07;0.80;;;17.20;60.70;;;;;;10416202;28;20225;-76
2021/12/29 06:53:49;;;;;;;1.17;0.90;;;17.10;60.70;;;;;;10423863;28;20730;-76
2021/12/29 06:59:13;;;;;;;0.83;0.80;;;17.10;60.70;;;;;;10466444;22;20229;-66
2021/12/29 07:04:35;;;;;;;1.20;0.90;;;17.10;60.70;;;;;;10454010;28;20200;-66
2021/12/29 07:09:57;;;;;;;1.00;0.87;;;17.10;60.80;;;;;;10453943;28;20232;-65
2021/12/29 07:15:20;;;;;;;1.50;0.93;;;17.10;60.70;;;;;;10449471;28;20583;-66
2021/12/29 07:20:44;;;;;;;1.20;1.10;;;17.10;60.70;;;;;;10447040;28;20217;-69
2021/12/29 07:26:06;;;;;;;1.10;0.93;;;17.10;60.80;;;;;;10449315;28;20551;-68
2021/12/29 07:31:29;;;;;;;1.30;0.90;;;17.10;60.80;;;;;;10432377;28;20594;-67
2021/12/29 07:36:52;;;;;;;1.57;0.80;;;17.00;60.70;;;;;;10438044;28;20189;-65
2021/12/29 07:42:14;;;;;;;1.33;0.73;;;17.10;60.80;;;;;;10451061;28;20582;-67
2021/12/29 07:47:44;;;;;;;1.60;1.07;;;17.10;60.80;;;;;;10451632;28;20235;-68
2021/12/29 07:53:06;;;;;;;1.00;0.87;;;17.00;60.90;;;;;;10450851;28;20201;-67
2021/12/29 07:58:29;;;;;;;1.10;0.83;;;17.10;61.10;;;;;;10449978;28;20217;-67
2021/12/29 08:03:53;;;;;;;1.40;0.90;;;17.10;61.00;;;;;;10447172;28;20201;-67
2021/12/29 08:09:15;;;;;;;0.93;0.93;;;17.10;61.00;;;;;;10448091;28;20217;-66
2021/12/29 08:14:37;;;;;;;1.00;0.80;;;17.00;61.10;;;;;;10429995;28;20201;-67
2021/12/29 08:20:01;;;;;;;1.13;0.87;;;17.00;61.10;;;;;;10441002;28;20705;-66
2021/12/29 08:25:24;;;;;;;1.13;1.03;;;17.00;61.20;;;;;;10454176;28;20197;-66
2021/12/29 08:30:48;;;;;;;1.20;1.10;;;17.10;61.20;;;;;;10454275;28;20227;-66
2021/12/29 08:36:12;;;;;;;1.40;1.10;;;17.00;61.20;;;;;;10453092;28;20286;-66
2021/12/29 08:41:35;;;;;;;2.13;1.17;;;17.00;61.20;;;;;;10431364;28;20224;-66
2021/12/29 08:46:57;;;;;;;1.17;1.07;;;17.00;61.30;;;;;;10417497;28;20221;-64
2021/12/29 08:52:20;;;;;;;1.10;1.00;;;17.00;61.30;;;;;;10418119;28;20193;-66
2021/12/29 08:57:44;;;;;;;1.00;0.80;;;17.00;61.40;;;;;;10421852;28;20232;-65
2021/12/29 09:03:06;;;;;;;1.30;1.00;;;17.00;61.40;;;;;;10418871;28;20197;-66
2021/12/29 09:08:30;;;;;;;0.80;0.80;;;17.00;61.40;;;;;;10452872;28;20226;-66
2021/12/29 09:13:53;;;;;;;1.20;0.93;;;17.00;61.50;;;;;;10445295;28;20197;-66
2021/12/29 09:19:15;;;;;;;3.80;1.20;;;17.00;61.50;;;;;;10441198;28;20217;-65
2021/12/29 09:24:39;;;;;;;1.10;1.00;;;17.10;61.60;;;;;;10453576;28;20688;-66
2021/12/29 09:30:01;;;;;;;1.57;1.13;;;17.10;61.50;;;;;;10428431;28;20217;-66
2021/12/29 09:35:24;;;;;;;0.83;0.80;;;17.20;61.60;;;;;;10447854;28;20209;-66
2021/12/29 09:40:48;;;;;;;1.50;1.40;;;17.10;61.50;;;;;;10453390;28;20216;-66
2021/12/29 09:46:11;;;;;;;1.30;1.17;;;17.10;61.50;;;;;;10447637;28;20216;-66
2021/12/29 09:51:33;;;;;;;1.27;1.17;;;17.00;61.40;;;;;;10440455;28;20236;-66
2021/12/29 09:56:57;;;;;;;1.10;0.93;;;17.00;61.50;;;;;;10449665;28;20714;-66
2021/12/29 10:02:19;;;;;;;1.33;1.23;;;17.00;61.50;;;;;;10455629;28;20193;-67
2021/12/29 10:07:41;;;;;;;1.80;1.27;;;17.10;61.50;;;;;;10456436;28;20228;-65
2021/12/29 10:13:08;;;;;;;1.90;1.13;;;17.10;61.60;;;;;;10452955;28;20208;-68
2021/12/29 10:18:32;;;;;;;1.30;1.20;;;17.10;61.60;;;;;;10454016;28;20216;-66
2021/12/29 10:23:57;;;;;;;1.80;1.27;;;17.00;61.70;;;;;;10455559;28;20208;-66
2021/12/29 10:29:22;;;;;;;1.50;1.30;;;17.00;61.70;;;;;;10449081;28;20765;-66
2021/12/29 10:34:51;;;;;;;1.23;1.10;;;17.10;61.80;;;;;;10453419;28;20193;-67
2021/12/29 10:40:25;;;;;;;2.03;1.37;;;17.00;61.70;;;;;;10456085;28;20765;-67
2021/12/29 10:45:52;;;;;;;2.00;0.90;;;17.10;61.80;;;;;;10461353;28;20276;-65
2021/12/29 10:51:15;;;;;;;0.90;0.80;;;17.10;61.90;;;;;;10453343;28;20224;-66
2021/12/29 10:56:39;;;;;;;1.53;1.30;;;17.10;62.00;;;;;;10458647;28;20200;-66
2021/12/29 11:02:04;;;;;;;1.10;1.00;;;17.10;62.00;;;;;;10457113;28;20216;-66
2021/12/29 11:07:27;;;;;;;1.20;0.90;;;17.10;62.00;;;;;;10452387;28;20756;-66
2021/12/29 11:12:54;;;;;;;1.53;1.10;;;17.10;62.00;;;;;;10461558;28;20208;-66
2021/12/29 11:18:17;;;;;;;2.13;1.10;;;17.10;62.00;;;;;;10454072;28;20268;-65
2021/12/29 11:23:41;;;;;;;1.33;1.00;;;17.10;62.60;;;;;;10449602;28;20197;-65
2021/12/29 11:29:06;;;;;;;1.20;0.93;;;17.10;62.00;;;;;;10452620;28;20757;-65
2021/12/29 11:34:30;;;;;;;1.00;0.90;;;17.10;62.00;;;;;;10452366;28;20193;-66
2021/12/29 11:39:52;;;;;;;3.70;1.10;;;17.10;62.00;;;;;;10451381;28;20205;-63
2021/12/29 11:45:15;;;;;;;1.33;0.97;;;17.10;61.90;;;;;;10451517;28;20204;-63
2021/12/29 11:50:40;;;;;;;3.22;1.60;;;17.10;61.90;;;;;;10452616;28;20448;-65
2021/12/29 11:56:06;;;;;;;3.20;1.30;;;18.00;59.20;;;;;;10453783;28;20216;-65
2021/12/29 12:01:31;;;;;;;2.20;1.30;;;17.50;61.00;;;;;;10453005;28;20700;-64
2021/12/29 12:07:03;;;;;;;1.93;1.30;;;17.30;61.50;;;;;;10451526;28;20197;-64
2021/12/29 12:12:34;;;;;;;2.87;1.10;;;17.30;61.70;;;;;;10431203;28;20198;-65
2021/12/29 12:18:06;;;;;;;2.00;1.07;;;17.30;61.60;;;;;;10447793;28;20240;-64
2021/12/29 12:23:31;;;;;;;4.97;1.50;;;17.20;61.60;;;;;;10446241;28;20339;-65
2021/12/29 12:28:55;;;;;;;4.00;1.37;;;17.20;61.90;;;;;;10447347;28;20220;-67
2021/12/29 12:34:22;;;;;;;5.27;1.90;;;17.20;62.00;;;;;;10450289;28;20563;-62
2021/12/29 12:39:58;;;;;;;3.73;1.73;;;17.20;62.10;;;;;;10449439;28;20566;-65
2021/12/29 12:45:22;;;;;;;2.97;1.93;;;17.30;62.00;;;;;;10449655;28;20197;-64
2021/12/29 12:50:45;;;;;;;3.50;2.03;;;17.20;62.10;;;;;;10447278;28;20217;-63
2021/12/29 12:56:12;;;;;;;5.07;2.00;;;17.20;62.10;;;;;;10479512;22;20204;-62
2021/12/29 13:01:45;;;;;;;5.27;1.87;;;17.20;62.00;;;;;;10395236;28;20225;-62
2021/12/29 13:07:07;;;;;;;5.27;2.07;;;17.20;62.00;;;;;;10404578;28;20201;-63
2021/12/29 13:12:34;;;;;;;4.73;2.10;;;17.20;62.00;;;;;;10407273;28;20567;-63
2021/12/29 13:17:56;;;;;;;5.23;2.30;;;17.30;62.10;;;;;;10407258;28;20295;-63
2021/12/29 13:23:20;;;;;;;4.80;2.30;;;17.20;62.00;;;;;;10406410;28;20663;-63
2021/12/29 13:28:44;;;;;;;3.33;1.67;;;17.20;62.00;;;;;;10406420;28;20726;-63
2021/12/29 13:34:06;;;;;;;4.70;1.90;;;17.20;62.00;;;;;;10415165;28;20213;-64
2021/12/29 13:39:28;;;;;;;5.30;2.33;;;17.20;62.00;;;;;;10414505;28;20220;-66
2021/12/29 13:44:54;;;;;;;3.80;1.90;;;17.20;62.00;;;;;;10413960;28;20920;-65
2021/12/29 13:50:17;;;;;;;3.67;2.10;;;17.20;62.00;;;;;;10409255;28;20225;-66
2021/12/29 13:55:41;;;;;;;3.33;2.00;;;17.20;62.00;;;;;;10413873;28;20682;-66
2021/12/29 14:01:06;;;;;;;2.90;2.00;;;17.20;62.10;;;;;;10414046;28;20217;-64
2021/12/29 14:06:29;;;;;;;3.40;2.00;;;17.10;62.20;;;;;;10413983;28;20193;-66
2021/12/29 14:11:52;;;;;;;3.27;2.00;;;17.10;62.40;;;;;;10413318;28;20755;-67
2021/12/29 14:17:19;;;;;;;2.90;1.80;;;17.10;62.50;;;;;;10400029;28;20209;-66
2021/12/29 14:22:41;;;;;;;4.63;2.00;;;17.10;62.70;;;;;;10411111;28;20186;-64
2021/12/29 14:28:11;;;;;;;4.00;1.77;;;17.10;62.80;;;;;;10413130;28;20224;-65
2021/12/29 14:33:40;;;;;;;2.70;1.93;;;17.10;62.90;;;;;;10413281;28;20563;-63
2021/12/29 14:39:06;;;;;;;3.93;2.10;;;17.10;63.00;;;;;;10411227;28;20709;-65
2021/12/29 14:44:28;;;;;;;3.73;1.80;;;17.10;63.10;;;;;;10410881;28;20189;-62
2021/12/29 14:49:58;;;;;;;4.00;1.90;;;17.10;63.10;;;;;;10413219;28;20236;-64
2021/12/29 14:55:24;;;;;;;3.60;1.97;;;17.10;63.10;;;;;;10417609;28;20190;-66
2021/12/29 15:00:47;;;;;;;3.33;1.50;;;17.20;63.30;;;;;;10414344;28;20214;-65
2021/12/29 15:06:12;;;;;;;2.47;2.00;;;17.20;63.50;;;;;;10412680;28;20197;-65
2021/12/29 15:11:36;;;;;;;3.13;1.80;;;17.20;63.60;;;;;;10411660;28;20284;-66
2021/12/29 15:17:01;;;;;;;2.57;1.60;;;17.20;63.70;;;;;;10400357;28;20194;-64
2021/12/29 15:22:24;;;;;;;1.77;1.47;;;17.20;63.80;;;;;;10404736;28;20689;-65
2021/12/29 15:27:48;;;;;;;2.43;1.70;;;17.20;63.90;;;;;;10407968;28;20217;-64
2021/12/29 15:33:11;;;;;;;3.00;1.57;;;17.20;64.00;;;;;;10405001;28;20420;-65
2021/12/29 15:38:35;;;;;;;2.63;1.53;;;17.20;64.70;;;;;;10408342;28;20292;-62
2021/12/29 15:44:02;;;;;;;2.70;1.90;;;17.20;64.10;;;;;;10406649;28;20204;-66
2021/12/29 15:49:24;;;;;;;2.50;1.60;;;17.20;64.20;;;;;;10408773;28;20214;-64
2021/12/29 15:54:48;;;;;;;1.97;1.50;;;17.20;64.20;;;;;;10404428;28;20201;-64
2021/12/29 16:00:14;;;;;;;2.10;1.67;;;17.20;64.20;;;;;;10409047;28;20223;-63
2021/12/29 16:05:38;;;;;;;1.97;1.43;;;17.20;64.30;;;;;;10408776;28;20186;-64
2021/12/29 16:11:01;;;;;;;2.50;1.70;;;17.20;64.20;;;;;;10406726;28;20221;-64
2021/12/29 16:16:23;;;;;;;2.43;1.67;;;17.20;64.20;;;;;;10409316;28;20774;-66
2021/12/29 16:21:45;;;;;;;1.90;1.53;;;17.20;64.20;;;;;;10407267;28;20213;-67
2021/12/29 16:27:09;;;;;;;2.00;1.53;;;17.20;63.90;;;;;;10412268;28;20195;-67
2021/12/29 16:32:31;;;;;;;1.50;1.33;;;17.30;63.80;;;;;;10416356;28;20218;-66
2021/12/29 16:37:53;;;;;;;1.63;1.30;;;17.30;63.70;;;;;;10415598;28;20217;-64
2021/12/29 16:43:17;;;;;;;3.03;1.60;;;17.30;63.50;;;;;;10418418;28;20190;-65
2021/12/29 16:48:39;;;;;;;1.60;1.50;;;17.40;63.50;;;;;;10410279;28;20241;-64
2021/12/29 16:54:01;;;;;;;1.53;1.20;;;17.40;63.50;;;;;;10413785;28;20197;-67
2021/12/29 16:59:25;;;;;;;2.03;1.40;;;17.40;64.00;;;;;;10407388;28;20225;-66
2021/12/29 17:04:48;;;;;;;2.00;1.30;;;17.40;63.30;;;;;;10405514;28;20206;-64
2021/12/29 17:10:12;;;;;;;2.27;1.33;;;17.40;63.30;;;;;;10400407;28;20217;-66
2021/12/29 17:15:36;;;;;;;1.80;1.47;;;17.40;63.20;;;;;;10397558;28;20197;-66
2021/12/29 17:20:58;;;;;;;1.70;1.20;;;17.40;63.80;;;;;;10401257;28;20584;-66
2021/12/29 17:26:20;;;;;;;1.80;1.30;;;17.40;63.30;;;;;;10399735;28;20756;-67
2021/12/29 17:31:44;;;;;;;1.70;1.60;;;17.40;63.20;;;;;;10403640;28;20691;-66
2021/12/29 17:37:07;;;;;;;2.00;1.40;;;17.40;63.10;;;;;;10401788;28;20671;-66
2021/12/29 17:42:30;;;;;;;1.73;1.40;;;17.40;63.10;;;;;;10407691;28;20220;-67
2021/12/29 17:47:53;;;;;;;1.40;1.23;;;17.40;63.10;;;;;;10407915;28;20218;-64
2021/12/29 17:53:18;;;;;;;1.60;1.33;;;17.40;63.10;;;;;;10409050;28;20190;-61
2021/12/29 17:58:41;;;;;;;1.97;1.57;;;17.40;63.10;;;;;;10406952;28;20226;-64
2021/12/29 18:04:05;;;;;;;1.47;1.37;;;17.30;63.00;;;;;;10385334;28;20203;-66
2021/12/29 18:09:27;;;;;;;1.70;1.30;;;17.40;63.00;;;;;;10391626;28;20222;-68
2021/12/29 18:14:49;;;;;;;1.63;1.40;;;17.40;63.00;;;;;;10401807;28;20575;-67
2021/12/29 18:20:16;;;;;;;1.83;1.07;;;17.40;63.00;;;;;;10405740;28;20214;-64
2021/12/29 18:25:41;;;;;;;1.93;1.30;;;17.30;62.90;;;;;;10408566;28;20200;-64
2021/12/29 18:31:04;;;;;;;1.73;1.40;;;17.40;63.10;;;;;;10413057;28;20391;-64
2021/12/29 18:36:28;;;;;;;1.43;1.33;;;17.40;63.00;;;;;;10399989;28;20243;-63
2021/12/29 18:41:50;;;;;;;2.10;1.60;;;17.40;63.00;;;;;;10403385;28;20227;-67
2021/12/29 18:47:12;;;;;;;2.53;1.60;;;17.40;63.00;;;;;;10392524;28;20197;-66
2021/12/29 18:52:36;;;;;;;2.57;1.77;;;17.40;62.90;;;;;;10389382;28;20263;-64
2021/12/29 18:57:59;;;;;;;2.50;2.03;;;17.40;63.00;;;;;;10405151;28;20715;-61
2021/12/29 19:03:22;;;;;;;3.50;2.17;;;17.40;63.00;;;;;;10405736;28;20186;-63
2021/12/29 19:08:46;;;;;;;2.67;2.13;;;17.40;63.00;;;;;;10402983;28;20637;-63
2021/12/29 19:14:08;;;;;;;2.77;2.03;;;17.40;63.00;;;;;;10404452;28;20202;-64
2021/12/29 19:19:30;;;;;;;2.87;2.30;;;17.40;63.00;;;;;;10402906;28;20213;-64
2021/12/29 19:24:53;;;;;;;4.20;2.40;;;17.40;63.10;;;;;;10403991;28;20221;-63
2021/12/29 19:30:18;;;;;;;2.40;2.00;;;17.40;63.10;;;;;;10402399;28;20217;-63
2021/12/29 19:35:40;;;;;;;4.03;2.20;;;17.40;63.00;;;;;;10403561;28;20202;-62
2021/12/29 19:41:07;;;;;;;4.43;2.57;;;17.40;63.00;;;;;;10403362;28;20217;-59
2021/12/29 19:46:29;;;;;;;4.20;2.20;;;17.40;63.60;;;;;;10402846;28;20652;-63
2021/12/29 19:51:53;;;;;;;4.27;2.20;;;17.40;63.10;;;;;;10395479;28;20240;-63
2021/12/29 19:57:19;;;;;;;3.53;2.53;;;17.40;63.10;;;;;;10389523;28;20198;-63
2021/12/29 20:02:41;;;;;;;2.90;2.03;;;17.40;63.10;;;;;;10395975;28;20744;-62
2021/12/29 20:08:06;;;;;;;4.73;2.20;;;17.40;63.00;;;;;;10392553;28;20221;-62
2021/12/29 20:13:30;;;;;;;3.53;2.30;;;17.40;62.90;;;;;;10397812;28;20228;-62
2021/12/29 20:18:52;;;;;;;2.67;2.00;;;17.40;63.00;;;;;;10402549;28;20683;-61
2021/12/29 20:24:14;;;;;;;2.20;2.00;;;17.40;63.00;;;;;;10402112;28;20309;-61
2021/12/29 20:34:43;;;;;;;2.20;2.00;;;17.40;62.90;;;;;;10361682;28;20249;-64
2021/12/29 20:40:08;;;;;;;3.40;1.73;;;17.40;62.90;;;;;;10349630;28;20215;-64
2021/12/29 20:45:31;;;;;;;3.20;2.10;;;17.40;62.90;;;;;;10308542;28;20199;-64
2021/12/29 20:50:55;;;;;;;4.63;2.10;;;17.40;62.90;;;;;;10357811;28;20253;-63
2021/12/29 20:56:18;;;;;;;2.53;2.07;;;17.40;62.90;;;;;;10369031;28;20198;-64
2021/12/29 21:01:41;;;;;;;2.33;1.93;;;17.40;62.90;;;;;;10367008;28;20224;-63
2021/12/29 21:07:05;;;;;;;2.37;1.77;;;17.40;62.90;;;;;;10366391;28;20387;-64
2021/12/29 21:12:27;;;;;;;2.00;1.70;;;17.40;62.90;;;;;;10341441;28;20707;-64
2021/12/29 21:17:49;;;;;;;1.80;1.57;;;17.40;62.90;;;;;;10327328;28;20215;-64
2021/12/29 21:23:13;;;;;;;2.77;1.80;;;17.40;62.90;;;;;;10327775;28;20546;-64
2021/12/29 21:28:36;;;;;;;2.50;1.70;;;17.40;62.90;;;;;;10324023;28;20222;-64
2021/12/29 21:33:59;;;;;;;2.73;1.77;;;17.40;62.90;;;;;;10327952;28;20285;-64
2021/12/29 21:39:22;;;;;;;2.03;1.60;;;17.40;62.90;;;;;;10327506;28;20226;-64
2021/12/29 21:44:44;;;;;;;1.90;1.47;;;17.40;62.90;;;;;;10327243;28;20565;-64
2021/12/29 21:50:07;;;;;;;2.83;1.50;;;17.40;62.90;;;;;;10326825;28;20596;-64
2021/12/29 21:55:33;;;;;;;2.10;1.63;;;17.40;62.90;;;;;;10335141;28;20195;-64
2021/12/29 22:00:56;;;;;;;1.97;1.50;;;17.40;62.90;;;;;;10332531;28;20731;-62
2021/12/29 22:06:18;;;;;;;2.23;1.67;;;17.40;62.90;;;;;;10334721;28;20191;-63
2021/12/29 22:11:42;;;;;;;2.23;1.40;;;17.40;63.00;;;;;;10332952;28;20226;-64
2021/12/29 22:17:05;;;;;;;1.97;1.70;;;17.30;62.90;;;;;;10333385;28;20903;-65
2021/12/29 22:22:27;;;;;;;1.80;1.50;;;17.30;62.90;;;;;;10332755;28;20213;-63
2021/12/29 22:27:52;;;;;;;1.50;1.30;;;17.30;62.90;;;;;;10333305;28;20236;-64
2021/12/29 22:33:15;;;;;;;1.67;1.47;;;17.30;62.90;;;;;;10324079;28;20230;-64
2021/12/29 22:38:37;;;;;;;1.93;1.73;;;17.30;62.90;;;;;;10332851;28;20223;-63
2021/12/29 22:44:00;;;;;;;1.40;1.30;;;17.30;63.00;;;;;;10333615;28;20195;-64
2021/12/29 22:49:22;;;;;;;1.70;1.53;;;17.30;62.90;;;;;;10330413;28;20223;-64
2021/12/29 22:54:45;;;;;;;1.40;1.17;;;17.30;62.90;;;;;;10324209;28;20195;-63
2021/12/29 23:00:15;;;;;;;1.50;1.40;;;17.30;63.00;;;;;;10331719;28;20215;-63
2021/12/29 23:05:39;;;;;;;1.30;1.20;;;17.30;62.90;;;;;;10330915;28;20226;-63
2021/12/29 23:11:02;;;;;;;1.47;1.37;;;17.30;62.90;;;;;;10330661;28;20222;-64
2021/12/29 23:16:25;;;;;;;1.23;1.07;;;17.30;63.00;;;;;;10331908;28;20203;-64
2021/12/29 23:21:49;;;;;;;1.80;1.27;;;17.40;63.00;;;;;;10331869;28;20691;-64
2021/12/29 23:32:53;;;;;;;1.30;1.20;;;17.30;63.00;;;;;;10327259;28;20302;-64
2021/12/29 23:38:16;;;;;;;2.00;1.37;;;17.30;63.00;;;;;;10363086;28;20588;-64
2021/12/29 23:43:39;;;;;;;1.73;1.27;;;17.30;63.00;;;;;;10331399;28;20565;-64
2021/12/29 23:49:02;;;;;;;1.30;1.20;;;17.30;63.00;;;;;;10330856;28;20222;-64
2021/12/29 23:54:24;;;;;;;1.53;1.13;;;17.30;63.00;;;;;;10331049;28;20222;-64
2021/12/29 23:59:47;;;;;;;1.30;1.20;;;17.30;63.00;;;;;;10330227;28;20594;-63
